createdAt,value
2022-09-20T00:01:52.294Z,0.32
2022-09-20T00:04:20.524Z,0.60
2022-09-20T00:06:51.481Z,0.80
2022-09-20T00:09:21.087Z,0.17
2022-09-20T00:11:49.345Z,0.60
2022-09-20T00:14:17.586Z,1.23
2022-09-20T00:16:45.956Z,0.80
2022-09-20T00:19:18.180Z,0.57
2022-09-20T00:21:46.573Z,0.60
2022-09-20T00:24:14.814Z,0.40
2022-09-20T00:26:44.433Z,0.98
2022-09-20T00:29:13.722Z,0.50
2022-09-20T00:31:42.785Z,1.25
2022-09-20T00:34:29.049Z,1.17
2022-09-20T00:36:57.282Z,0.70
2022-09-20T00:39:25.753Z,0.30
2022-09-20T00:41:57.615Z,0.60
2022-09-20T00:44:54.872Z,0.82
2022-09-20T00:47:26.023Z,0.70
2022-09-20T00:50:02.374Z,1.30
2022-09-20T00:52:30.647Z,0.77
2022-09-20T00:55:01.389Z,0.65
2022-09-20T00:57:35.153Z,1.45
2022-09-20T01:00:06.282Z,0.63
2022-09-20T01:02:34.591Z,0.20
2022-09-20T01:05:02.896Z,1.05
2022-09-20T01:07:31.131Z,0.50
2022-09-20T01:09:59.394Z,0.30
2022-09-20T01:12:28.415Z,0.80
2022-09-20T01:14:57.999Z,0.20
2022-09-20T01:17:26.930Z,0.73
2022-09-20T01:20:03.702Z,0.57
2022-09-20T01:22:35.806Z,0.50
2022-09-20T01:25:07.419Z,0.30
2022-09-20T01:27:42.621Z,0.52
2022-09-20T01:30:12.395Z,0.30
2022-09-20T01:32:51.340Z,1.95
2022-09-20T01:35:21.211Z,0.95
2022-09-20T01:38:03.832Z,0.70
2022-09-20T01:40:38.512Z,0.70
2022-09-20T01:43:16.691Z,0.40
2022-09-20T01:45:47.440Z,0.65
2022-09-20T01:48:18.761Z,0.60
2022-09-20T01:50:54.782Z,0.75
2022-09-20T01:53:46.596Z,0.40
2022-09-20T01:56:33.455Z,0.75
2022-09-20T01:59:25.042Z,0.30
2022-09-20T02:02:07.561Z,0.88
2022-09-20T02:05:10.467Z,0.43
2022-09-20T02:08:04.008Z,0.98
2022-09-20T02:11:04.887Z,0.63
2022-09-20T02:13:34.296Z,0.50
2022-09-20T02:16:18.359Z,0.30
2022-09-20T02:18:56.705Z,0.50
2022-09-20T02:21:29.470Z,0.45
2022-09-20T02:24:01.229Z,1.00
2022-09-20T02:26:34.739Z,0.35
2022-09-20T02:29:07.408Z,0.73
2022-09-20T02:31:52.571Z,0.32
2022-09-20T02:34:39.991Z,0.98
2022-09-20T02:37:16.980Z,0.20
2022-09-20T02:42:16.103Z,0.40
2022-09-20T02:44:59.458Z,1.75
2022-09-20T02:47:33.970Z,1.55
2022-09-20T02:50:21.738Z,0.47
2022-09-20T02:52:58.994Z,0.95
2022-09-20T02:55:30.006Z,1.25
2022-09-20T02:58:03.122Z,0.28
2022-09-20T03:00:35.413Z,0.63
2022-09-20T03:03:07.998Z,0.50
2022-09-20T03:05:42.975Z,0.35
2022-09-20T03:08:22.638Z,0.38
2022-09-20T03:10:52.958Z,0.30
2022-09-20T03:13:24.536Z,0.38
2022-09-20T03:16:02.235Z,0.30
2022-09-20T03:18:35.638Z,0.40
2022-09-20T03:21:10.773Z,1.17
2022-09-20T03:23:45.622Z,0.52
2022-09-20T03:26:19.088Z,0.52
2022-09-20T03:28:55.448Z,0.75
2022-09-20T03:31:32.308Z,0.50
2022-09-20T03:34:05.898Z,0.55
2022-09-20T03:36:46.372Z,0.70
2022-09-20T03:39:39.358Z,0.32
2022-09-20T03:42:18.800Z,0.85
2022-09-20T03:45:02.243Z,0.35
2022-09-20T03:47:43.892Z,0.10
2022-09-20T03:50:37.263Z,0.60
2022-09-20T03:53:16.840Z,0.38
2022-09-20T03:56:19.736Z,0.88
2022-09-20T03:58:57.159Z,1.50
2022-09-20T04:01:38.953Z,0.65
2022-09-20T04:04:11.810Z,0.43
2022-09-20T04:06:54.493Z,0.28
2022-09-20T04:09:44.972Z,0.32
2022-09-20T04:12:16.989Z,0.10
2022-09-20T04:14:48.815Z,0.20
2022-09-20T04:17:29.408Z,2.05
2022-09-20T04:20:01.139Z,0.65
2022-09-20T04:22:30.998Z,0.43
2022-09-20T04:25:03.680Z,0.40
2022-09-20T04:27:35.385Z,0.73
2022-09-20T04:30:06.058Z,0.38
2022-09-20T04:32:39.476Z,0.47
2022-09-20T04:35:39.814Z,0.45
2022-09-20T04:38:11.047Z,0.55
2022-09-20T04:40:52.140Z,0.40
2022-09-20T04:44:08.898Z,0.70
2022-09-20T04:47:00.020Z,1.00
2022-09-20T04:50:13.824Z,0.20
2022-09-20T04:53:21.529Z,0.50
2022-09-20T04:56:01.862Z,0.50
2022-09-20T04:58:42.146Z,0.80
2022-09-20T05:01:35.496Z,0.22
2022-09-20T05:04:22.101Z,0.47
2022-09-20T05:07:04.394Z,4.68
2022-09-20T05:09:48.866Z,6.32
2022-09-20T05:12:29.674Z,2.85
2022-09-20T05:15:22.935Z,1.27
2022-09-20T05:18:01.836Z,1.23
2022-09-20T05:20:45.566Z,1.13
2022-09-20T05:23:34.314Z,6.22
2022-09-20T05:26:10.875Z,1.30
2022-09-20T05:28:50.671Z,6.15
2022-09-20T05:31:23.465Z,3.03
2022-09-20T05:33:53.812Z,1.50
2022-09-20T05:36:32.317Z,1.70
2022-09-20T05:39:06.269Z,2.75
2022-09-20T05:41:37.755Z,2.58
2022-09-20T05:44:12.606Z,3.53
2022-09-20T05:46:46.371Z,3.38
2022-09-20T05:49:19.116Z,4.03
2022-09-20T05:51:54.012Z,10.13
2022-09-20T05:54:54.656Z,5.00
2022-09-20T05:57:29.618Z,3.55
2022-09-20T06:00:04.430Z,5.60
2022-09-20T06:02:39.733Z,4.85
2022-09-20T06:05:14.874Z,4.22
2022-09-20T06:08:00.612Z,5.25
2022-09-20T06:10:47.267Z,7.32
2022-09-20T06:14:03.593Z,7.47
2022-09-20T06:16:45.243Z,10.00
2022-09-20T06:19:19.687Z,5.25
2022-09-20T06:21:51.734Z,3.28
2022-09-20T06:24:38.415Z,3.58
2022-09-20T06:27:09.848Z,6.47
2022-09-20T06:29:40.034Z,3.88
2022-09-20T06:32:09.640Z,6.50
2022-09-20T06:34:37.943Z,7.78
2022-09-20T06:37:29.193Z,6.28
2022-09-20T06:40:17.946Z,4.97
2022-09-20T06:42:46.241Z,4.57
2022-09-20T06:45:14.579Z,3.63
2022-09-20T06:47:44.198Z,4.50
2022-09-20T06:50:16.257Z,4.18
2022-09-20T06:52:44.890Z,7.65
2022-09-20T06:55:14.875Z,4.32
2022-09-20T06:57:43.238Z,4.30
2022-09-20T07:00:15.689Z,2.90
2022-09-20T07:02:48.831Z,3.63
2022-09-20T07:05:17.356Z,10.30
2022-09-20T07:07:47.441Z,4.90
2022-09-20T07:10:16.862Z,3.28
2022-09-20T07:12:46.274Z,3.53
2022-09-20T07:15:14.906Z,2.45
2022-09-20T07:17:48.972Z,3.05
2022-09-20T07:20:21.232Z,3.70
2022-09-20T07:22:49.857Z,5.10
2022-09-20T07:25:18.857Z,3.58
2022-09-20T07:27:47.332Z,3.05
2022-09-20T07:30:15.706Z,4.65
2022-09-20T07:32:43.963Z,4.75
2022-09-20T07:35:14.785Z,2.42
2022-09-20T07:37:43.798Z,3.53
2022-09-20T07:40:12.401Z,2.10
2022-09-20T07:42:40.686Z,3.20
2022-09-20T07:45:09.920Z,3.00
2022-09-20T07:47:41.169Z,5.65
2022-09-20T07:50:14.310Z,2.13
2022-09-20T07:52:43.990Z,5.13
2022-09-20T07:55:12.284Z,1.80
2022-09-20T07:57:42.737Z,2.03
2022-09-20T08:00:14.279Z,2.15
2022-09-20T08:02:42.523Z,3.75
2022-09-20T08:05:10.966Z,2.95
2022-09-20T08:07:39.553Z,3.38
2022-09-20T08:10:10.276Z,1.45
2022-09-20T08:15:27.813Z,5.43
2022-09-20T08:17:56.151Z,3.30
2022-09-20T08:20:24.460Z,2.42
2022-09-20T08:23:19.296Z,1.85
2022-09-20T08:25:45.482Z,2.15
2022-09-20T08:28:13.725Z,2.08
2022-09-20T08:30:42.769Z,2.78
2022-09-20T08:33:11.496Z,1.92
2022-09-20T08:35:39.811Z,2.30
2022-09-20T08:41:00.520Z,3.13
2022-09-20T08:43:31.216Z,2.58
2022-09-20T08:45:59.849Z,2.63
2022-09-20T08:48:31.026Z,3.00
2022-09-20T08:51:05.702Z,1.60
2022-09-20T08:53:34.447Z,3.55
2022-09-20T08:56:04.713Z,1.52
2022-09-20T08:58:32.953Z,2.45
2022-09-20T09:01:01.805Z,1.33
2022-09-20T09:03:30.086Z,3.13
2022-09-20T09:05:59.315Z,0.95
2022-09-20T09:08:29.302Z,1.45
2022-09-20T09:10:59.661Z,2.33
2022-09-20T09:13:33.851Z,2.92
2022-09-20T09:16:03.278Z,2.25
2022-09-20T09:18:36.343Z,3.17
2022-09-20T09:21:05.228Z,2.13
2022-09-20T09:23:41.177Z,4.75
2022-09-20T09:26:16.927Z,2.83
2022-09-20T09:28:46.658Z,2.25
2022-09-20T09:31:24.654Z,1.77
2022-09-20T09:33:52.943Z,1.42
2022-09-20T09:36:23.495Z,1.55
2022-09-20T09:38:51.833Z,1.33
2022-09-20T09:41:26.269Z,1.83
2022-09-20T09:44:02.784Z,2.20
2022-09-20T09:46:32.157Z,3.50
2022-09-20T09:49:11.516Z,5.90
2022-09-20T09:51:42.369Z,1.02
2022-09-20T09:54:11.306Z,1.48
2022-09-20T09:56:47.143Z,1.60
2022-09-20T09:59:40.115Z,1.85
2022-09-20T10:02:18.819Z,0.93
2022-09-20T10:04:49.093Z,2.08
2022-09-20T10:07:20.122Z,0.85
2022-09-20T10:10:02.873Z,1.20
2022-09-20T10:12:44.607Z,1.27
2022-09-20T10:15:22.154Z,1.95
2022-09-20T10:17:52.805Z,0.98
2022-09-20T10:20:31.153Z,0.90
2022-09-20T10:25:54.989Z,1.13
2022-09-20T10:28:34.769Z,1.95
2022-09-20T10:31:08.940Z,0.90
2022-09-20T10:33:42.842Z,1.38
2022-09-20T10:36:16.989Z,1.60
2022-09-20T10:38:46.800Z,1.95
2022-09-20T10:41:35.830Z,1.65
2022-09-20T10:44:10.349Z,0.98
2022-09-20T10:46:46.746Z,1.25
2022-09-20T10:49:28.131Z,1.38
2022-09-20T10:52:04.257Z,1.13
2022-09-20T10:54:39.013Z,1.07
2022-09-20T10:57:18.183Z,1.05
2022-09-20T10:59:48.246Z,2.58
2022-09-20T11:02:37.171Z,1.52
2022-09-20T11:05:28.885Z,1.33
2022-09-20T11:08:07.778Z,1.95
2022-09-20T11:10:37.572Z,6.30
2022-09-20T11:13:08.585Z,0.60
2022-09-20T11:15:37.961Z,3.35
2022-09-20T11:18:10.810Z,0.70
2022-09-20T11:20:44.156Z,1.65
2022-09-20T11:23:14.894Z,1.38
2022-09-20T11:25:45.348Z,3.20
2022-09-20T11:28:18.541Z,2.40
2022-09-20T11:30:51.317Z,0.70
2022-09-20T11:33:24.604Z,0.55
2022-09-20T11:35:53.406Z,0.73
2022-09-20T11:38:24.900Z,0.60
2022-09-20T11:40:55.130Z,2.17
2022-09-20T11:43:25.272Z,0.75
2022-09-20T11:45:55.816Z,1.35
2022-09-20T11:48:27.135Z,1.25
2022-09-20T11:51:28.474Z,1.73
2022-09-20T11:54:07.097Z,2.20
2022-09-20T11:56:35.422Z,1.90
2022-09-20T11:59:05.665Z,2.47
2022-09-20T12:01:35.282Z,3.05
2022-09-20T12:04:31.761Z,0.90
2022-09-20T12:06:59.326Z,1.23
2022-09-20T12:09:30.103Z,1.80
2022-09-20T12:11:59.486Z,1.00
2022-09-20T12:14:28.899Z,3.20
2022-09-20T12:16:57.321Z,1.40
2022-09-20T12:19:38.789Z,2.00
2022-09-20T12:22:30.416Z,4.78
2022-09-20T12:25:36.162Z,1.98
2022-09-20T12:28:05.817Z,0.32
2022-09-20T12:30:34.108Z,1.63
2022-09-20T12:33:03.551Z,4.15
2022-09-20T12:36:12.239Z,1.80
2022-09-20T12:38:53.043Z,4.68
2022-09-20T12:41:28.226Z,3.50
2022-09-20T12:44:06.517Z,1.23
2022-09-20T12:46:42.225Z,1.55
2022-09-20T12:49:46.585Z,1.70
2022-09-20T12:52:48.342Z,0.98
2022-09-20T12:55:46.134Z,2.03
2022-09-20T12:58:36.322Z,0.85
2022-09-20T13:01:45.666Z,1.25
2022-09-20T13:05:01.831Z,1.30
2022-09-20T13:07:51.972Z,0.73
2022-09-20T13:10:30.030Z,0.40
2022-09-20T13:13:04.096Z,2.60
2022-09-20T13:15:33.118Z,1.02
2022-09-20T13:18:02.305Z,1.90
2022-09-20T13:20:31.445Z,0.80
2022-09-20T13:23:01.197Z,3.65
2022-09-20T13:25:32.034Z,2.65
2022-09-20T13:28:06.624Z,2.40
2022-09-20T13:30:35.222Z,1.55
2022-09-20T13:33:24.929Z,1.25
2022-09-20T13:35:57.096Z,1.98
2022-09-20T13:38:27.816Z,2.42
2022-09-20T13:41:02.318Z,6.30
2022-09-20T13:43:32.498Z,3.50
2022-09-20T13:46:01.585Z,1.23
2022-09-20T13:48:30.713Z,1.67
2022-09-20T13:50:58.956Z,1.23
2022-09-20T13:53:41.454Z,8.70
2022-09-20T13:56:11.433Z,4.28
2022-09-20T13:58:39.654Z,1.70
2022-09-20T14:01:09.664Z,4.80
2022-09-20T14:03:37.927Z,39.90
2022-09-20T14:06:08.647Z,4.82
2022-09-20T14:08:40.094Z,4.30
2022-09-20T14:11:09.216Z,8.18
2022-09-20T14:13:40.670Z,5.07
2022-09-20T14:16:08.937Z,7.55
2022-09-20T14:18:37.480Z,6.47
2022-09-20T14:21:20.773Z,6.72
2022-09-20T14:23:52.085Z,3.17
2022-09-20T14:26:26.786Z,10.70
2022-09-20T14:28:57.929Z,3.20
2022-09-20T14:31:28.797Z,12.48
2022-09-20T14:33:58.094Z,10.07
2022-09-20T14:36:27.624Z,8.82
2022-09-20T14:38:57.851Z,3.60
2022-09-20T14:41:27.785Z,4.50
2022-09-20T14:43:56.810Z,2.70
2022-09-20T14:46:30.622Z,3.20
2022-09-20T14:49:19.806Z,2.85
2022-09-20T14:51:49.023Z,9.10
2022-09-20T14:54:26.905Z,3.55
2022-09-20T14:56:57.531Z,2.17
2022-09-20T14:59:26.754Z,1.35
2022-09-20T15:01:57.753Z,3.08
2022-09-20T15:04:26.830Z,3.22
2022-09-20T15:06:55.321Z,3.83
2022-09-20T15:09:24.902Z,4.22
2022-09-20T15:12:03.283Z,4.25
2022-09-20T15:14:36.502Z,8.05
2022-09-20T15:17:05.881Z,4.30
2022-09-20T15:19:34.400Z,4.07
2022-09-20T15:22:02.742Z,4.90
2022-09-20T15:24:32.345Z,10.57
2022-09-20T15:27:00.573Z,6.15
2022-09-20T15:29:28.855Z,40.35
2022-09-20T15:31:57.164Z,41.80
2022-09-20T15:34:25.474Z,54.97
2022-09-20T15:36:54.136Z,40.45
2022-09-20T15:39:23.665Z,43.97
2022-09-20T15:41:54.130Z,41.50
2022-09-20T15:44:22.353Z,40.35
2022-09-20T15:46:51.403Z,29.95
2022-09-20T15:49:20.713Z,32.58
2022-09-20T15:51:49.309Z,34.70
2022-09-20T15:54:17.894Z,29.63
2022-09-20T15:56:46.125Z,28.80
2022-09-20T15:59:16.323Z,18.17
2022-09-20T16:01:45.586Z,28.23
2022-09-20T16:04:17.334Z,17.23
2022-09-20T16:06:46.686Z,19.48
2022-09-20T16:09:15.140Z,17.83
2022-09-20T16:11:43.378Z,21.15
2022-09-20T16:14:11.658Z,18.42
2022-09-20T16:16:41.365Z,19.80
2022-09-20T16:19:20.550Z,13.35
2022-09-20T16:21:55.109Z,14.93
2022-09-20T16:24:26.058Z,11.02
2022-09-20T16:26:54.326Z,11.95
2022-09-20T16:29:23.446Z,9.65
2022-09-20T16:31:53.419Z,8.75
2022-09-20T16:34:22.636Z,7.60
2022-09-20T16:36:51.602Z,10.18
2022-09-20T16:39:20.608Z,6.50
2022-09-20T16:41:52.819Z,6.25
2022-09-20T16:44:21.073Z,8.25
2022-09-20T16:46:53.381Z,4.30
2022-09-20T16:49:22.003Z,5.47
2022-09-20T16:51:50.251Z,5.32
2022-09-20T16:54:19.497Z,6.85
2022-09-20T16:56:48.371Z,10.18
2022-09-20T16:59:17.883Z,12.93
2022-09-20T17:01:46.451Z,10.73
2022-09-20T17:04:17.733Z,7.95
2022-09-20T17:06:46.102Z,19.13
2022-09-20T17:09:14.708Z,16.88
2022-09-20T17:11:44.569Z,13.35
2022-09-20T17:14:13.051Z,13.25
2022-09-20T17:16:42.122Z,10.23
2022-09-20T17:19:11.211Z,11.60
2022-09-20T17:21:43.311Z,15.68
2022-09-20T17:24:11.629Z,13.35
2022-09-20T17:26:40.825Z,4.60
2022-09-20T17:29:10.449Z,5.72
2022-09-20T17:31:41.538Z,5.03
2022-09-20T17:34:10.968Z,11.30
2022-09-20T17:36:41.777Z,7.93
2022-09-20T17:39:10.935Z,5.75
2022-09-20T17:41:39.472Z,5.53
2022-09-20T17:44:08.227Z,4.65
2022-09-20T17:46:37.545Z,3.30
2022-09-20T17:49:07.370Z,5.95
2022-09-20T17:51:36.560Z,2.47
2022-09-20T17:54:06.418Z,9.60
2022-09-20T17:56:35.362Z,4.18
2022-09-20T17:59:04.466Z,3.20
2022-09-20T18:01:34.950Z,9.90
2022-09-20T18:04:03.790Z,4.50
2022-09-20T18:06:32.906Z,9.48
2022-09-20T18:09:02.489Z,8.15
2022-09-20T18:11:33.212Z,6.82
2022-09-20T18:14:01.995Z,6.18
2022-09-20T18:16:30.908Z,6.22
2022-09-20T18:18:59.990Z,4.55
2022-09-20T18:21:29.098Z,3.90
2022-09-20T18:23:57.944Z,2.08
2022-09-20T18:26:27.112Z,4.97
2022-09-20T18:28:57.945Z,5.13
2022-09-20T18:31:27.480Z,1.33
2022-09-20T18:33:57.063Z,2.53
2022-09-20T18:36:29.525Z,2.70
2022-09-20T18:38:58.086Z,5.85
2022-09-20T18:41:27.170Z,1.77
2022-09-20T18:43:58.480Z,1.38
2022-09-20T18:46:27.902Z,2.63
2022-09-20T18:48:57.196Z,5.80
2022-09-20T18:51:28.740Z,2.30
2022-09-20T18:53:57.190Z,4.07
2022-09-20T18:56:26.574Z,1.92
2022-09-20T18:58:57.220Z,1.92
2022-09-20T19:01:57.713Z,2.03
2022-09-20T19:04:34.591Z,2.75
2022-09-20T19:07:11.278Z,2.92
2022-09-20T19:09:43.627Z,2.03
2022-09-20T19:12:17.976Z,4.18
2022-09-20T19:15:06.413Z,2.78
2022-09-20T19:17:50.445Z,1.77
2022-09-20T19:20:22.409Z,3.33
2022-09-20T19:22:55.909Z,2.10
2022-09-20T19:25:25.371Z,2.33
2022-09-20T19:27:53.987Z,3.22
2022-09-20T19:30:25.693Z,1.65
2022-09-20T19:32:54.470Z,2.67
2022-09-20T19:35:25.096Z,3.20
2022-09-20T19:38:01.893Z,3.13
2022-09-20T19:40:36.047Z,1.85
2022-09-20T19:43:14.396Z,2.33
2022-09-20T19:45:46.916Z,3.95
2022-09-20T19:48:18.420Z,1.20
2022-09-20T19:50:47.349Z,4.18
2022-09-20T19:53:16.886Z,2.65
2022-09-20T19:55:47.352Z,2.67
2022-09-20T19:58:16.130Z,2.47
2022-09-20T20:00:46.254Z,1.63
2022-09-20T20:03:15.327Z,3.15
2022-09-20T20:05:47.198Z,3.88
2022-09-20T20:08:17.345Z,1.17
2022-09-20T20:10:51.759Z,1.50
2022-09-20T20:13:40.253Z,1.83
2022-09-20T20:16:12.701Z,3.75
2022-09-20T20:18:43.621Z,2.40
2022-09-20T20:21:14.020Z,4.97
2022-09-20T20:23:49.086Z,2.08
2022-09-20T20:26:20.307Z,3.45
2022-09-20T20:28:48.627Z,3.47
2022-09-20T20:31:18.238Z,2.92
2022-09-20T20:33:46.530Z,4.75
2022-09-20T20:36:14.791Z,2.15
2022-09-20T20:38:49.334Z,1.80
2022-09-20T20:41:18.383Z,2.47
2022-09-20T20:43:47.328Z,2.80
2022-09-20T20:46:18.416Z,2.53
2022-09-20T20:48:48.230Z,3.05
2022-09-20T20:51:17.498Z,2.15
2022-09-20T20:53:46.983Z,4.43
2022-09-20T20:56:16.446Z,1.08
2022-09-20T20:58:44.944Z,3.97
2022-09-20T21:01:14.125Z,0.90
2022-09-20T21:03:43.270Z,2.05
2022-09-20T21:06:13.160Z,3.88
2022-09-20T21:08:45.789Z,1.73
2022-09-20T21:11:17.979Z,2.67
2022-09-20T21:13:48.261Z,2.67
2022-09-20T21:16:17.769Z,1.75
2022-09-20T21:18:47.347Z,1.30
2022-09-20T21:21:18.942Z,2.40
2022-09-20T21:23:48.063Z,1.48
2022-09-20T21:26:16.418Z,2.33
2022-09-20T21:28:45.644Z,1.42
2022-09-20T21:31:13.995Z,1.33
2022-09-20T21:33:45.032Z,1.33
2022-09-20T21:36:14.071Z,5.63
2022-09-20T21:38:44.301Z,6.97
2022-09-20T21:41:13.552Z,1.88
2022-09-20T21:43:44.237Z,2.80
2022-09-20T21:46:13.031Z,2.13
2022-09-20T21:48:41.365Z,1.95
2022-09-20T21:51:12.912Z,6.75
2022-09-20T21:53:45.476Z,5.70
2022-09-20T21:56:15.451Z,4.63
2022-09-20T21:58:43.882Z,5.75
2022-09-20T22:01:13.971Z,3.35
2022-09-20T22:03:42.990Z,4.22
2022-09-20T22:06:12.863Z,3.65
2022-09-20T22:08:42.276Z,4.47
2022-09-20T22:11:15.017Z,8.70
2022-09-20T22:13:43.854Z,1.55
2022-09-20T22:16:12.881Z,2.28
2022-09-20T22:18:42.336Z,1.33
2022-09-20T22:21:11.997Z,2.25
2022-09-20T22:23:40.575Z,4.85
2022-09-20T22:26:11.513Z,4.88
2022-09-20T22:28:40.054Z,5.22
2022-09-20T22:31:10.002Z,3.00
2022-09-20T22:33:41.776Z,2.03
2022-09-20T22:36:10.497Z,1.60
2022-09-20T22:38:39.069Z,1.15
2022-09-20T22:41:07.575Z,1.13
2022-09-20T22:43:37.494Z,2.03
2022-09-20T22:46:07.680Z,2.35
2022-09-20T22:48:36.566Z,1.77
2022-09-20T22:51:05.829Z,1.95
2022-09-20T22:53:34.424Z,1.90
2022-09-20T22:56:04.727Z,1.80
2022-09-20T22:58:35.259Z,3.38
2022-09-20T23:01:12.115Z,1.08
2022-09-20T23:03:40.997Z,0.85
2022-09-20T23:06:15.342Z,2.33
2022-09-20T23:08:43.866Z,1.27
2022-09-20T23:11:12.436Z,1.27
2022-09-20T23:13:40.979Z,1.55
2022-09-20T23:16:14.820Z,6.75
2022-09-20T23:18:43.353Z,1.95
2022-09-20T23:21:11.851Z,0.98
2022-09-20T23:23:43.127Z,1.13
2022-09-20T23:26:13.088Z,2.33
2022-09-20T23:28:45.421Z,1.70
2022-09-20T23:31:16.189Z,1.80
2022-09-20T23:33:48.122Z,0.57
2022-09-20T23:36:16.802Z,2.05
2022-09-20T23:38:45.409Z,1.27
2022-09-20T23:41:15.110Z,0.57
2022-09-20T23:43:43.854Z,1.58
2022-09-20T23:46:15.924Z,3.35
2022-09-20T23:48:44.722Z,0.50
2022-09-20T23:51:14.023Z,0.82
2022-09-20T23:53:42.586Z,0.93
2022-09-20T23:56:11.283Z,1.20
2022-09-20T23:58:39.924Z,0.90
